^^
Station Historical Data
Daily Summary for May 3, 2017 Units:  English    Metric   Both
« Previous Day
Next Day »
Daily Weekly Monthly Yearly Custom
  High: Low: Average:
Temperature: 65.2 °F 47.2 °F 57.5 °F
Dew Point: 41.7 °F 30.7 °F 36.7 °F
Humidity: 61 % 32 % 46 %
Wind Speed: 15.9 mph 0.0 mph 4.7 mph
Wind Gust: 25.3 mph - -
Wind:- - WNW
Pressure: 30.22 in 29.80 in -
Precipitation: 0.00 in    
Historical Graphs
 
 
Tabular Data for May 3, 2017
Time Temperature Dew Point Pressure Wind Wind Speed Wind Gust Humidity Rainfall Rate (Hourly) solar Conditions
00:00 59.7 °F 39.4 °F 29.80 in WNW 0.1 mph 1.2 mph 47 % 0.00 in 0.0 W/m2 RA
00:05 59.6 °F 39.3 °F 29.80 in Calm   2.0 mph 47 % 0.00 in 0.0 W/m2 RA
00:10 59.5 °F 39.2 °F 29.80 in Calm     47 % 0.00 in 0.0 W/m2 CLR
00:13 59.4 °F 39.1 °F 29.80 in Calm     47 % 0.00 in 0.0 W/m2 CLR
00:15 59.4 °F 39.1 °F 29.80 in Calm     47 % 0.00 in 0.0 W/m2 CLR
00:20 59.4 °F 39.7 °F 29.81 in WNW 0.1 mph 1.0 mph 48 % 0.00 in 0.0 W/m2 CLR
00:21 59.4 °F 40.2 °F 29.81 in WNW 0.1 mph 1.2 mph 49 % 0.00 in 0.0 W/m2 CLR
00:26 59.2 °F 40.0 °F 29.81 in Calm     49 % 0.00 in 0.0 W/m2 CLR
00:31 59.1 °F 39.9 °F 29.81 in Calm     49 % 0.00 in 0.0 W/m2 CLR
00:36 58.9 °F 39.8 °F 29.81 in Calm     49 % 0.00 in 0.0 W/m2 CLR
00:41 58.8 °F 40.7 °F 29.81 in Calm     51 % 0.00 in 0.0 W/m2 CLR
00:46 58.6 °F 41.0 °F 29.82 in Calm     52 % 0.00 in 0.0 W/m2 CLR
00:51 58.6 °F 40.5 °F 29.81 in Calm     51 % 0.00 in 0.0 W/m2 CLR
00:56 58.6 °F 40.5 °F 29.81 in Calm     51 % 0.00 in 0.0 W/m2 CLR
01:01 58.7 °F 40.1 °F 29.81 in Calm     50 % 0.00 in 0.0 W/m2 CLR
01:06 58.6 °F 40.0 °F 29.81 in WSW 0.5 mph 1.2 mph 50 % 0.00 in 0.0 W/m2 CLR
01:11 58.6 °F 40.5 °F 29.81 in Calm     51 % 0.00 in 0.0 W/m2 CLR
01:16 58.5 °F 40.4 °F 29.82 in Calm     51 % 0.00 in 0.0 W/m2 CLR
01:21 58.4 °F 40.3 °F 29.81 in Calm   1.2 mph 51 % 0.00 in 0.0 W/m2 CLR
01:26 58.2 °F 40.6 °F 29.82 in Calm     52 % 0.00 in 0.0 W/m2 CLR
01:31 58.2 °F 40.1 °F 29.81 in Calm   2.3 mph 51 % 0.00 in 0.0 W/m2 CLR
01:36 58.2 °F 40.6 °F 29.81 in Calm     52 % 0.00 in 0.0 W/m2 CLR
01:41 58.0 °F 40.5 °F 29.81 in Calm     52 % 0.00 in 0.0 W/m2 CLR
01:46 58.0 °F 40.5 °F 29.81 in Calm   1.2 mph 52 % 0.00 in 0.0 W/m2 CLR
01:51 57.8 °F 40.8 °F 29.81 in Calm     53 % 0.00 in 0.0 W/m2 CLR
01:56 57.5 °F 41.4 °F 29.81 in Calm     55 % 0.00 in 0.0 W/m2 CLR
02:01 57.3 °F 41.3 °F 29.81 in Calm     55 % 0.00 in 0.0 W/m2 CLR
02:06 57.3 °F 41.7 °F 29.82 in Calm     56 % 0.00 in 0.0 W/m2 CLR
02:11 57.4 °F 40.9 °F 29.82 in West 1.3 mph 3.5 mph 54 % 0.00 in 0.0 W/m2 CLR
02:16 57.6 °F 41.1 °F 29.82 in Calm   3.5 mph 54 % 0.00 in 0.0 W/m2 CLR
02:21 57.6 °F 41.1 °F 29.82 in Calm   5.8 mph 54 % 0.00 in 0.0 W/m2 CLR
02:26 57.5 °F 40.5 °F 29.82 in WNW 4.0 mph 11.5 mph 53 % 0.00 in 0.0 W/m2 CLR
02:32 57.5 °F 40.5 °F 29.82 in WNW 0.7 mph 6.9 mph 53 % 0.00 in 0.0 W/m2 CLR
02:37 57.5 °F 41.0 °F 29.82 in Calm   3.5 mph 54 % 0.00 in 0.0 W/m2 CLR
02:42 57.4 °F 40.9 °F 29.82 in WSW 0.7 mph 3.0 mph 54 % 0.00 in 0.0 W/m2 CLR
02:47 57.4 °F 40.9 °F 29.82 in West 5.6 mph 7.0 mph 54 % 0.00 in 0.0 W/m2 CLR
02:52 57.5 °F 41.0 °F 29.82 in West 2.5 mph 4.0 mph 54 % 0.00 in 0.0 W/m2 CLR
02:55 57.4 °F 40.9 °F 29.82 in SSW 5.4 mph 11.5 mph 54 % 0.00 in 0.0 W/m2 CLR
03:00 57.4 °F 40.9 °F 29.83 in WSW 2.1 mph 9.2 mph 54 % 0.00 in 0.0 W/m2 CLR
03:05 57.3 °F 41.3 °F 29.83 in WNW 4.0 mph 7.0 mph 55 % 0.00 in 0.0 W/m2 CLR
03:10 57.2 °F 41.2 °F 29.83 in West 2.6 mph 5.8 mph 55 % 0.00 in 0.0 W/m2 CLR
03:15 57.2 °F 41.2 °F 29.83 in West 2.5 mph 6.9 mph 55 % 0.00 in 0.0 W/m2 CLR
03:20 57.2 °F 41.2 °F 29.83 in West 2.1 mph 5.8 mph 55 % 0.00 in 0.0 W/m2 CLR
03:25 57.3 °F 40.8 °F 29.83 in WNW 2.6 mph 8.1 mph 54 % 0.00 in 0.0 W/m2 CLR
03:30 57.2 °F 40.7 °F 29.83 in WNW 5.0 mph 12.7 mph 54 % 0.00 in 0.0 W/m2 CLR
03:35 57.2 °F 40.7 °F 29.83 in West 5.9 mph 11.5 mph 54 % 0.00 in 0.0 W/m2 CLR
03:40 57.1 °F 40.1 °F 29.83 in WSW 3.9 mph 8.1 mph 53 % 0.00 in 0.0 W/m2 CLR
03:45 57.0 °F 39.5 °F 29.83 in NW 3.9 mph 8.1 mph 52 % 0.00 in 0.0 W/m2 CLR
03:50 57.0 °F 39.5 °F 29.84 in West 1.9 mph 11.5 mph 52 % 0.00 in 0.0 W/m2 CLR
03:55 56.9 °F 39.4 °F 29.83 in WSW 2.3 mph 10.0 mph 52 % 0.00 in 0.0 W/m2 CLR
04:00 56.8 °F 39.4 °F 29.84 in West 1.4 mph 8.1 mph 52 % 0.00 in 0.0 W/m2 CLR
04:05 56.7 °F 39.3 °F 29.84 in West 2.2 mph 6.0 mph 52 % 0.00 in 0.0 W/m2 CLR
04:10 56.7 °F 39.3 °F 29.84 in West 3.6 mph 8.1 mph 52 % 0.00 in 0.0 W/m2 CLR
04:15 56.6 °F 39.7 °F 29.84 in West 0.4 mph 4.6 mph 53 % 0.00 in 0.0 W/m2 CLR
04:20 56.4 °F 39.5 °F 29.84 in WSW 2.3 mph 4.6 mph 53 % 0.00 in 0.0 W/m2 CLR
04:25 56.2 °F 39.8 °F 29.85 in Calm   1.2 mph 54 % 0.00 in 0.0 W/m2 CLR
04:30 56.1 °F 40.1 °F 29.85 in West 0.8 mph 3.5 mph 55 % 0.00 in 0.0 W/m2 CLR
04:35 56.0 °F 40.1 °F 29.84 in West 0.3 mph 2.3 mph 55 % 0.00 in 0.0 W/m2 CLR
04:40 55.9 °F 40.0 °F 29.85 in West 1.0 mph 3.5 mph 55 % 0.00 in 0.0 W/m2 CLR
04:45 55.9 °F 40.4 °F 29.85 in WSW 0.8 mph 3.5 mph 56 % 0.00 in 0.0 W/m2 CLR
04:50 55.7 °F 40.7 °F 29.85 in WSW 0.7 mph 3.5 mph 57 % 0.00 in 0.0 W/m2 CLR
04:55 55.7 °F 40.7 °F 29.85 in Calm   3.5 mph 57 % 0.00 in 0.0 W/m2 CLR
05:00 55.6 °F 41.0 °F 29.85 in Calm     58 % 0.00 in 0.0 W/m2 CLR
05:05 55.5 °F 41.0 °F 29.85 in Calm   3.5 mph 58 % 0.00 in 0.0 W/m2 CLR
05:10 55.5 °F 41.0 °F 29.85 in Calm     58 % 0.00 in 0.0 W/m2 CLR
05:15 55.3 °F 41.2 °F 29.85 in West 0.2 mph 3.5 mph 59 % 0.00 in 0.0 W/m2 CLR
05:20 55.3 °F 41.2 °F 29.86 in WSW 4.0 mph 13.0 mph 59 % 0.00 in 0.0 W/m2 CLR
05:25 55.3 °F 40.3 °F 29.85 in West 3.5 mph 11.5 mph 57 % 0.00 in 0.0 W/m2 CLR
05:30 55.2 °F 40.2 °F 29.85 in West 4.8 mph 17.3 mph 57 % 0.00 in 0.0 W/m2 CLR
05:35 55.3 °F 39.4 °F 29.86 in WNW 6.5 mph 12.7 mph 55 % 0.00 in 0.0 W/m2 CLR
05:40 55.4 °F 39.0 °F 29.86 in WNW 6.6 mph 16.1 mph 54 % 0.00 in 0.0 W/m2 CLR
05:45 55.4 °F 39.0 °F 29.86 in WNW 3.5 mph 9.2 mph 54 % 0.00 in 0.0 W/m2 CLR
05:50 55.3 °F 38.9 °F 29.86 in WNW 2.5 mph 11.5 mph 54 % 0.00 in 0.0 W/m2 CLR
05:55 55.3 °F 38.4 °F 29.87 in West 11.2 mph 13.0 mph 53 % 0.00 in 0.0 W/m2 CLR
06:00 55.3 °F 38.4 °F 29.86 in West 3.5 mph 15.0 mph 53 % 0.00 in 0.0 W/m2 CLR
06:05 55.1 °F 38.3 °F 29.86 in WNW 1.9 mph 6.0 mph 53 % 0.00 in 5.0 W/m2 CLR
06:10 54.9 °F 38.1 °F 29.87 in West 3.4 mph 11.5 mph 53 % 0.00 in 9.0 W/m2 CLR
06:16 54.6 °F 38.3 °F 29.87 in NW 0.7 mph 11.5 mph 54 % 0.00 in 12.0 W/m2 CLR
06:21 54.5 °F 37.7 °F 29.88 in WNW 4.0 mph 9.2 mph 53 % 0.00 in 18.0 W/m2 CLR
06:26 54.4 °F 38.1 °F 29.88 in West 3.0 mph 10.4 mph 54 % 0.00 in 21.0 W/m2 CLR
06:31 54.3 °F 38.0 °F 29.88 in WSW 5.7 mph 15.0 mph 54 % 0.00 in 25.0 W/m2 CLR
06:36 54.3 °F 38.5 °F 29.88 in WNW 0.9 mph 11.5 mph 55 % 0.00 in 28.0 W/m2 CLR
06:41 54.2 °F 38.4 °F 29.89 in West 8.6 mph 15.0 mph 55 % 0.00 in 19.0 W/m2 CLR
06:46 54.1 °F 38.7 °F 29.89 in WNW 1.4 mph 4.6 mph 56 % 0.00 in 23.0 W/m2 BKN
06:51 54.0 °F 38.6 °F 29.89 in NW 0.6 mph 3.5 mph 56 % 0.00 in 32.0 W/m2 BKN
06:56 53.9 °F 38.6 °F 29.90 in WSW 0.5 mph 2.3 mph 56 % 0.00 in 37.0 W/m2 BKN
07:01 54.0 °F 38.6 °F 29.90 in West 8.1 mph 15.0 mph 56 % 0.00 in 44.0 W/m2 BKN
07:06 54.0 °F 38.6 °F 29.90 in WNW 1.7 mph 9.2 mph 56 % 0.00 in 49.0 W/m2 BKN
07:11 54.2 °F 38.8 °F 29.90 in West 1.2 mph 3.5 mph 56 % 0.00 in 33.0 W/m2 OVC
07:16 54.1 °F 38.7 °F 29.90 in WNW 5.0 mph 11.5 mph 56 % 0.00 in 35.0 W/m2 OVC
07:21 54.4 °F 39.5 °F 29.90 in WNW 1.9 mph 9.2 mph 57 % 0.00 in 37.0 W/m2 OVC
07:26 54.6 °F 39.2 °F 29.90 in WNW 0.4 mph 8.1 mph 56 % 0.00 in 42.0 W/m2 OVC
07:31 54.9 °F 38.6 °F 29.91 in WSW 3.5 mph 11.5 mph 54 % 0.00 in 51.0 W/m2 OVC
07:36 54.9 °F 38.1 °F 29.91 in WNW 5.3 mph 12.0 mph 53 % 0.00 in 60.0 W/m2 BKN
07:38 54.9 °F 37.6 °F 29.91 in WNW 7.5 mph 12.7 mph 52 % 0.00 in 47.0 W/m2 OVC
07:43 55.1 °F 37.8 °F 29.91 in WNW 3.9 mph 11.5 mph 52 % 0.00 in 46.0 W/m2 OVC
07:48 55.1 °F 37.3 °F 29.91 in WSW 6.9 mph 11.5 mph 51 % 0.00 in 67.0 W/m2 BKN
07:53 55.1 °F 37.3 °F 29.91 in West 7.8 mph 15.0 mph 51 % 0.00 in 60.0 W/m2 OVC
07:58 55.1 °F 36.8 °F 29.91 in West 6.1 mph 11.5 mph 50 % 0.00 in 67.0 W/m2 OVC
08:03 55.2 °F 36.9 °F 29.91 in WSW 4.7 mph 14.0 mph 50 % 0.00 in 100.0 W/m2 BKN
08:08 55.4 °F 36.5 °F 29.92 in NW 4.0 mph 12.7 mph 49 % 0.00 in 155.0 W/m2 SCT
08:13 55.5 °F 36.1 °F 29.92 in WNW 9.4 mph 15.0 mph 48 % 0.00 in 171.0 W/m2 SCT
08:18 55.3 °F 36.5 °F 29.92 in WSW 5.5 mph 15.0 mph 49 % 0.00 in 160.0 W/m2 SCT
08:23 55.3 °F 35.9 °F 29.92 in West 12.6 mph 19.6 mph 48 % 0.00 in 95.0 W/m2 OVC
08:28 55.4 °F 36.0 °F 29.92 in WSW 13.4 mph 24.2 mph 48 % 0.00 in 76.0 W/m2 OVC
08:33 55.7 °F 36.3 °F 29.92 in West 11.8 mph 19.6 mph 48 % 0.00 in 104.0 W/m2 BKN
08:38 56.0 °F 36.0 °F 29.93 in West 13.9 mph 18.4 mph 47 % 0.00 in 172.0 W/m2 BKN
08:43 55.9 °F 36.5 °F 29.93 in WNW 10.1 mph 16.1 mph 48 % 0.00 in 357.0 W/m2 CLR
08:45 56.1 °F 36.7 °F 29.93 in NW 4.0 mph 13.8 mph 48 % 0.00 in 357.0 W/m2 CLR
08:50 57.0 °F 37.0 °F 29.93 in NW 10.9 mph 17.3 mph 47 % 0.00 in 598.0 W/m2 CLR
08:55 57.1 °F 37.0 °F 29.93 in WNW 15.9 mph 20.7 mph 47 % 0.00 in 617.0 W/m2 CLR
09:00 56.8 °F 36.8 °F 29.93 in WNW 13.1 mph 17.3 mph 47 % 0.00 in 260.0 W/m2 SCT
09:05 56.1 °F 36.7 °F 29.93 in WNW 6.1 mph 13.0 mph 48 % 0.00 in 192.0 W/m2 BKN
09:10 55.7 °F 36.8 °F 29.93 in West 8.9 mph 13.8 mph 49 % 0.00 in 209.0 W/m2 BKN
09:15 55.5 °F 37.1 °F 29.93 in West 2.7 mph 11.5 mph 50 % 0.00 in 155.0 W/m2 BKN
09:20 55.1 °F 36.8 °F 29.93 in West 5.9 mph 12.7 mph 50 % 0.00 in 169.0 W/m2 BKN
09:25 55.0 °F 37.2 °F 29.94 in WNW 8.9 mph 16.1 mph 51 % 0.00 in 267.0 W/m2 SCT
09:30 54.9 °F 36.6 °F 29.94 in WNW 10.2 mph 18.4 mph 50 % 0.00 in 158.0 W/m2 BKN
09:35 54.6 °F 37.3 °F 29.94 in West 4.6 mph 11.5 mph 52 % 0.00 in 188.0 W/m2 BKN
09:40 54.4 °F 36.6 °F 29.94 in NW 8.7 mph 15.0 mph 51 % 0.00 in 237.0 W/m2 BKN
09:45 54.2 °F 36.5 °F 29.94 in WNW 3.7 mph 10.4 mph 51 % 0.00 in 332.0 W/m2 SCT
09:50 54.6 °F 35.3 °F 29.94 in West 12.1 mph 18.4 mph 48 % 0.00 in 336.0 W/m2 SCT
09:55 54.9 °F 35.6 °F 29.94 in West 10.5 mph 16.1 mph 48 % 0.00 in 418.0 W/m2 SCT
10:00 54.8 °F 35.5 °F 29.94 in WNW 7.1 mph 13.8 mph 48 % 0.00 in 311.0 W/m2 SCT
10:05 54.9 °F 36.1 °F 29.94 in West 3.7 mph 15.0 mph 49 % 0.00 in 519.0 W/m2 CLR
10:10 55.4 °F 36.0 °F 29.95 in WNW 8.5 mph 17.3 mph 48 % 0.00 in 817.0 W/m2 CLR
10:15 56.4 °F 36.9 °F 29.94 in West 3.6 mph 17.3 mph 48 % 0.00 in 1004.0 W/m2 CLR
10:20 56.6 °F 36.6 °F 29.94 in WNW 9.7 mph 25.3 mph 47 % 0.00 in 329.0 W/m2 SCT
10:25 55.6 °F 35.7 °F 29.95 in West 11.8 mph 19.6 mph 47 % 0.00 in 227.0 W/m2 BKN
10:28 55.1 °F 35.7 °F 29.95 in WNW 9.2 mph 12.7 mph 48 % 0.00 in 230.0 W/m2 BKN
10:33 54.7 °F 35.4 °F 29.95 in WNW 8.8 mph 15.0 mph 48 % 0.00 in 276.0 W/m2 BKN
10:38 55.7 °F 35.8 °F 29.95 in WSW 9.9 mph 17.3 mph 47 % 0.00 in 918.0 W/m2 CLR
10:43 56.4 °F 35.9 °F 29.95 in West 7.3 mph 15.0 mph 46 % 0.00 in 1088.0 W/m2 CLR
10:48 57.0 °F 35.9 °F 29.95 in WNW 10.0 mph 17.3 mph 45 % 0.00 in 450.0 W/m2 CLR
10:53 56.9 °F 35.8 °F 29.95 in NW 5.4 mph 12.7 mph 45 % 0.00 in 411.0 W/m2 SCT
10:58 56.7 °F 35.6 °F 29.95 in WNW 7.5 mph 15.0 mph 45 % 0.00 in 346.0 W/m2 BKN
11:03 56.6 °F 35.5 °F 29.95 in NW 9.5 mph 16.1 mph 45 % 0.00 in 346.0 W/m2 BKN
11:05 56.4 °F 35.3 °F 29.95 in West 6.7 mph 13.8 mph 45 % 0.00 in 394.0 W/m2 BKN
11:10 56.4 °F 35.3 °F 29.95 in West 5.6 mph 11.5 mph 45 % 0.00 in 315.0 W/m2 BKN
11:15 56.4 °F 35.3 °F 29.96 in WSW 10.0 mph 15.0 mph 45 % 0.00 in 1123.0 W/m2 BKN
11:20 57.5 °F 35.7 °F 29.96 in West 13.2 mph 17.3 mph 44 % 0.00 in 1002.0 W/m2 CLR
11:28 58.4 °F 36.0 °F 29.96 in WSW 12.2 mph 19.6 mph 43 % 0.00 in 308.0 W/m2 OVC
11:33 57.8 °F 35.4 °F 29.97 in WNW 7.9 mph 11.5 mph 43 % 0.00 in 218.0 W/m2 BKN
11:38 57.0 °F 35.9 °F 29.97 in WNW 4.5 mph 8.1 mph 45 % 0.00 in 211.0 W/m2 OVC
11:43 56.8 °F 35.7 °F 29.97 in NW 7.0 mph 17.0 mph 45 % 0.00 in 237.0 W/m2 OVC
11:48 56.6 °F 35.5 °F 29.98 in WNW 5.2 mph 13.8 mph 45 % 0.00 in 241.0 W/m2 BKN
11:53 56.4 °F 35.9 °F 29.98 in WNW 9.0 mph 16.1 mph 46 % 0.00 in 171.0 W/m2 OVC
11:58 56.1 °F 36.1 °F 29.99 in WNW 10.1 mph 19.6 mph 47 % 0.00 in 225.0 W/m2 OVC
12:03 56.4 °F 35.9 °F 30.00 in West 9.1 mph 17.3 mph 46 % 0.00 in 218.0 W/m2 BKN
12:09 56.4 °F 36.4 °F 30.00 in NW 7.0 mph 11.5 mph 47 % 0.00 in 199.0 W/m2 OVC
12:14 56.4 °F 37.5 °F 30.00 in NW 5.9 mph 11.5 mph 49 % 0.00 in 327.0 W/m2 BKN
12:19 57.1 °F 37.6 °F 29.99 in WNW 5.5 mph 11.5 mph 48 % 0.00 in 338.0 W/m2 BKN
12:24 57.0 °F 37.0 °F 29.99 in WNW 14.5 mph 18.4 mph 47 % 0.00 in 371.0 W/m2 BKN
12:29 56.9 °F 36.9 °F 29.99 in WNW 13.1 mph 18.4 mph 47 % 0.00 in 439.0 W/m2 BKN
12:34 57.6 °F 38.0 °F 30.00 in NW 7.3 mph 11.5 mph 48 % 0.00 in 554.0 W/m2 FEW
12:39 58.6 °F 37.9 °F 29.99 in West 12.4 mph 19.6 mph 46 % 0.00 in 1211.0 W/m2 CLR
12:44 58.5 °F 37.8 °F 29.99 in West 13.4 mph 15.0 mph 46 % 0.00 in 366.0 W/m2 BKN
12:49 57.7 °F 37.0 °F 29.99 in NW 11.8 mph 17.0 mph 46 % 0.00 in 315.0 W/m2 BKN
12:54 57.2 °F 36.6 °F 29.99 in NW 10.6 mph 23.0 mph 46 % 0.00 in 417.0 W/m2 BKN
12:59 57.4 °F 36.8 °F 29.99 in WNW 13.4 mph 17.3 mph 46 % 0.00 in 499.0 W/m2 SCT
13:04 58.1 °F 38.5 °F 29.99 in NW 10.1 mph 22.0 mph 48 % 0.00 in 378.0 W/m2 BKN
13:09 59.9 °F 37.9 °F 29.99 in NW 6.1 mph 13.8 mph 44 % 0.00 in 348.0 W/m2 CLR
13:14 59.7 °F 37.2 °F 29.99 in WNW 7.3 mph 17.3 mph 43 % 0.00 in 388.0 W/m2 BKN
13:19 59.5 °F 37.6 °F 29.99 in West 5.0 mph 10.0 mph 44 % 0.00 in 388.0 W/m2 BKN
13:24 60.7 °F 38.1 °F 29.99 in WNW 12.1 mph 17.0 mph 43 % 0.00 in 341.0 W/m2 FEW
13:29 60.0 °F 39.1 °F 30.00 in WNW 3.6 mph 8.0 mph 46 % 0.00 in 487.0 W/m2 SCT
13:34 59.2 °F 37.9 °F 29.99 in NW 9.9 mph 13.0 mph 45 % 0.00 in 459.0 W/m2 SCT
13:39 59.1 °F 38.3 °F 30.00 in NW 9.8 mph 15.0 mph 46 % 0.00 in 406.0 W/m2 BKN
13:44 59.8 °F 38.4 °F 29.99 in WNW 9.7 mph 11.5 mph 45 % 0.00 in 1086.0 W/m2 CLR
13:50 60.0 °F 38.6 °F 30.00 in West 5.8 mph 12.7 mph 45 % 0.00 in 587.0 W/m2 CLR
13:55 60.8 °F 38.2 °F 30.00 in WNW 7.0 mph 20.0 mph 43 % 0.00 in 403.0 W/m2 BKN
14:00 60.7 °F 38.6 °F 30.00 in West 10.0 mph 15.0 mph 44 % 0.00 in 1065.0 W/m2 CLR
14:05 60.4 °F 37.8 °F 30.00 in WNW 10.1 mph 18.0 mph 43 % 0.00 in 207.0 W/m2 FEW
14:10 60.9 °F 37.6 °F 30.00 in West 9.0 mph 19.6 mph 42 % 0.00 in 1086.0 W/m2 CLR
14:15 61.8 °F 38.4 °F 30.01 in WNW 6.9 mph 15.0 mph 42 % 0.00 in 392.0 W/m2 FEW
14:20 62.5 °F 37.8 °F 30.01 in WNW 7.6 mph 18.4 mph 40 % 0.00 in 1195.0 W/m2 CLR
14:25 62.3 °F 37.7 °F 30.01 in NNW 6.0 mph 13.8 mph 40 % 0.00 in 415.0 W/m2 SCT
14:29 62.1 °F 38.1 °F 30.01 in NNW 13.7 mph 21.0 mph 41 % 0.00 in 1090.0 W/m2 FEW
14:30 62.3 °F 38.3 °F 30.01 in NNW 9.8 mph 20.7 mph 41 % 0.00 in 1048.0 W/m2 CLR
14:35 63.3 °F 39.8 °F 30.01 in North 9.0 mph 10.4 mph 42 % 0.00 in 1004.0 W/m2 CLR
14:40 62.6 °F 37.3 °F 30.01 in West 11.3 mph 25.3 mph 39 % 0.00 in 1004.0 W/m2 CLR
14:45 62.3 °F 37.7 °F 30.01 in NNW 13.3 mph 21.9 mph 40 % 0.00 in 1005.0 W/m2 FEW
14:50 63.3 °F 39.2 °F 30.01 in WNW 14.4 mph 18.0 mph 41 % 0.00 in 1071.0 W/m2 CLR
14:55 62.1 °F 37.5 °F 30.01 in NW 9.7 mph 17.3 mph 40 % 0.00 in 232.0 W/m2 BKN
15:00 62.1 °F 38.7 °F 30.01 in NW 11.7 mph 18.4 mph 42 % 0.00 in 1007.0 W/m2 FEW
15:05 63.4 °F 37.3 °F 30.01 in WNW 11.0 mph 13.8 mph 38 % 0.00 in 1035.0 W/m2 CLR
15:10 63.6 °F 36.8 °F 30.01 in NW 13.4 mph 17.3 mph 37 % 0.00 in 1181.0 W/m2 CLR
15:15 63.4 °F 37.3 °F 30.01 in WNW 1.8 mph 12.7 mph 38 % 0.00 in 373.0 W/m2 CLR
15:16 63.5 °F 37.4 °F 30.01 in NW 3.1 mph 11.5 mph 38 % 0.00 in 373.0 W/m2 FEW
15:21 63.5 °F 36.7 °F 30.01 in West 10.5 mph 18.4 mph 37 % 0.00 in 1078.0 W/m2 CLR
15:26 63.2 °F 36.5 °F 30.02 in WNW 7.2 mph 13.8 mph 37 % 0.00 in 311.0 W/m2 BKN
15:31 62.8 °F 37.5 °F 30.02 in NNW 7.9 mph 12.7 mph 39 % 0.00 in 192.0 W/m2 OVC
15:36 62.4 °F 37.1 °F 30.02 in North 8.9 mph 11.5 mph 39 % 0.00 in 262.0 W/m2 BKN
15:41 63.4 °F 37.3 °F 30.02 in WNW 9.3 mph 16.1 mph 38 % 0.00 in 937.0 W/m2 CLR
15:42 63.6 °F 37.5 °F 30.02 in West 10.5 mph 15.0 mph 38 % 0.00 in 921.0 W/m2 CLR
15:47 63.3 °F 36.6 °F 30.02 in WNW 7.7 mph 13.8 mph 37 % 0.00 in 860.0 W/m2 OVC
15:50 63.5 °F 37.4 °F 30.02 in WNW 8.8 mph 12.7 mph 38 % 0.00 in 870.0 W/m2 CLR
15:52 63.6 °F 38.2 °F 30.02 in West 6.5 mph 11.5 mph 39 % 0.00 in 192.0 W/m2 BKN
15:56 63.4 °F 36.7 °F 30.02 in NW 7.8 mph 9.2 mph 37 % 0.00 in 216.0 W/m2 FEW
16:01 62.9 °F 36.9 °F 30.02 in NW 8.2 mph 11.5 mph 38 % 0.00 in 151.0 W/m2 OVC
16:06 63.0 °F 37.6 °F 30.01 in North 6.3 mph 13.8 mph 39 % 0.00 in 780.0 W/m2 CLR
16:11 64.1 °F 38.0 °F 30.01 in NNW 10.7 mph 17.3 mph 38 % 0.00 in 742.0 W/m2 CLR
16:16 64.0 °F 37.2 °F 30.02 in NNW 10.3 mph 13.8 mph 37 % 0.00 in 724.0 W/m2 CLR
16:21 64.6 °F 37.7 °F 30.02 in NNW 8.8 mph 13.8 mph 37 % 0.00 in 696.0 W/m2 CLR
16:26 64.8 °F 37.2 °F 30.01 in NNW 4.6 mph 12.7 mph 36 % 0.00 in 717.0 W/m2 CLR
16:31 65.2 °F 36.8 °F 30.01 in WNW 12.1 mph 16.1 mph 35 % 0.00 in 687.0 W/m2 CLR
16:36 65.2 °F 36.8 °F 30.01 in NW 8.1 mph 13.0 mph 35 % 0.00 in 673.0 W/m2 CLR
16:41 65.1 °F 37.5 °F 30.02 in NE 11.0 mph 16.1 mph 36 % 0.00 in 664.0 W/m2 CLR
16:46 64.0 °F 35.8 °F 30.02 in North 6.2 mph 11.5 mph 35 % 0.00 in 608.0 W/m2 CLR
16:51 64.0 °F 35.8 °F 30.02 in NW 6.4 mph 18.4 mph 35 % 0.00 in 603.0 W/m2 CLR
16:56 64.6 °F 34.8 °F 30.02 in NNW 9.5 mph 17.3 mph 33 % 0.00 in 568.0 W/m2 CLR
17:01 64.5 °F 34.7 °F 30.02 in NW 7.1 mph 16.1 mph 33 % 0.00 in 570.0 W/m2 CLR
17:06 64.3 °F 34.6 °F 30.02 in North 9.6 mph 11.5 mph 33 % 0.00 in 550.0 W/m2 CLR
17:11 63.9 °F 34.2 °F 30.03 in NW 9.1 mph 11.5 mph 33 % 0.00 in 524.0 W/m2 CLR
17:16 63.9 °F 34.2 °F 30.02 in NNW 9.0 mph 16.0 mph 33 % 0.00 in 492.0 W/m2 CLR
17:21 64.0 °F 33.5 °F 30.03 in NW 9.1 mph 12.7 mph 32 % 0.00 in 471.0 W/m2 CLR
17:27 63.9 °F 34.2 °F 30.03 in NW 7.2 mph 15.0 mph 33 % 0.00 in 457.0 W/m2 CLR
17:32 63.7 °F 34.0 °F 30.03 in NNW 6.9 mph 16.1 mph 33 % 0.00 in 438.0 W/m2 CLR
17:37 63.9 °F 35.0 °F 30.03 in NW 9.5 mph 15.0 mph 34 % 0.00 in 415.0 W/m2 CLR
17:42 63.7 °F 34.0 °F 30.03 in NNW 8.6 mph 16.1 mph 33 % 0.00 in 399.0 W/m2 CLR
17:47 63.1 °F 34.3 °F 30.03 in North 7.3 mph 10.4 mph 34 % 0.00 in 387.0 W/m2 CLR
17:52 62.9 °F 34.1 °F 30.03 in North 6.6 mph 11.5 mph 34 % 0.00 in 366.0 W/m2 CLR
17:57 62.9 °F 34.1 °F 30.03 in NNW 6.2 mph 11.5 mph 34 % 0.00 in 352.0 W/m2 CLR
18:02 62.9 °F 34.8 °F 30.04 in North 7.1 mph 11.5 mph 35 % 0.00 in 330.0 W/m2 CLR
18:07 62.8 °F 34.7 °F 30.03 in North 4.2 mph 8.1 mph 35 % 0.00 in 315.0 W/m2 CLR
18:12 62.5 °F 35.2 °F 30.04 in NNW 3.5 mph 9.0 mph 36 % 0.00 in 294.0 W/m2 CLR
18:13 62.5 °F 34.5 °F 30.04 in NNW 6.5 mph 9.2 mph 35 % 0.00 in 290.0 W/m2 CLR
18:18 62.7 °F 33.2 °F 30.04 in NW 9.9 mph 13.8 mph 33 % 0.00 in 271.0 W/m2 CLR
18:23 62.6 °F 33.1 °F 30.04 in NW 8.0 mph 13.0 mph 33 % 0.00 in 253.0 W/m2 CLR
18:28 62.5 °F 33.7 °F 30.04 in NW 5.2 mph 5.2 mph 34 % 0.00 in 230.0 W/m2 CLR
18:33 62.2 °F 34.2 °F 30.05 in North 2.3 mph 3.5 mph 35 % 0.00 in 209.0 W/m2 CLR
18:38 61.7 °F 33.7 °F 30.04 in NNE 2.0 mph 6.9 mph 35 % 0.00 in 185.0 W/m2 CLR
18:43 61.4 °F 33.5 °F 30.05 in NNW 3.3 mph 4.6 mph 35 % 0.00 in 169.0 W/m2 CLR
18:48 61.6 °F 33.7 °F 30.05 in North 3.1 mph 4.6 mph 35 % 0.00 in 148.0 W/m2 CLR
18:53 61.5 °F 32.8 °F 30.05 in North 2.1 mph 10.4 mph 34 % 0.00 in 127.0 W/m2 CLR
18:58 61.0 °F 32.4 °F 30.05 in North 4.7 mph 10.4 mph 34 % 0.00 in 105.0 W/m2 FEW
19:03 60.6 °F 32.1 °F 30.04 in NNE 4.0 mph 10.4 mph 34 % 0.00 in 90.0 W/m2 FEW
19:08 60.3 °F 32.5 °F 30.05 in North 0.7 mph 3.5 mph 35 % 0.00 in 76.0 W/m2 FEW
19:13 59.9 °F 32.2 °F 30.05 in North 4.5 mph 9.2 mph 35 % 0.00 in 51.0 W/m2 SCT
19:18 59.6 °F 31.9 °F 30.06 in NNW 3.5 mph 9.2 mph 35 % 0.00 in 32.0 W/m2 BKN
19:23 59.4 °F 31.7 °F 30.06 in NW 5.2 mph 9.2 mph 35 % 0.00 in 28.0 W/m2 BKN
19:28 59.2 °F 32.2 °F 30.07 in NNW 1.1 mph 5.8 mph 36 % 0.00 in 26.0 W/m2 BKN
19:33 59.1 °F 32.1 °F 30.08 in North 0.7 mph 3.5 mph 36 % 0.00 in 21.0 W/m2 BKN
19:39 58.9 °F 32.7 °F 30.09 in NNW 0.1 mph 1.2 mph 37 % 0.00 in 19.0 W/m2 BKN
19:44 58.5 °F 32.3 °F 30.09 in North 0.8 mph 4.6 mph 37 % 0.00 in 16.0 W/m2 BKN
19:48 58.4 °F 32.2 °F 30.09 in North 1.0 mph 10.4 mph 37 % 0.00 in 11.0 W/m2 SCT
19:54 58.1 °F 31.9 °F 30.10 in NW 1.8 mph 8.1 mph 37 % 0.00 in 7.0 W/m2 BKN
19:59 57.8 °F 32.3 °F 30.11 in NNW 0.2 mph 3.5 mph 38 % 0.00 in 5.0 W/m2 SCT
20:04 57.3 °F 32.5 °F 30.12 in NNW 0.1 mph   39 % 0.00 in 0.0 W/m2 SCT
20:09 57.2 °F 32.4 °F 30.12 in Calm     39 % 0.00 in 0.0 W/m2 SCT
20:13 56.8 °F 32.1 °F 30.12 in NW 0.6 mph 1.2 mph 39 % 0.00 in 0.0 W/m2 SCT
20:19 56.5 °F 32.4 °F 30.13 in Calm     40 % 0.00 in 0.0 W/m2 SCT
20:24 56.3 °F 32.3 °F 30.14 in NNW 0.1 mph   40 % 0.00 in 0.0 W/m2 SCT
20:29 56.3 °F 32.3 °F 30.15 in Calm     40 % 0.00 in 0.0 W/m2 SCT
20:34 56.1 °F 31.5 °F 30.15 in NNW 0.1 mph 2.3 mph 39 % 0.00 in 0.0 W/m2 SCT
20:39 55.9 °F 31.9 °F 30.15 in Calm   5.8 mph 40 % 0.00 in 0.0 W/m2 SCT
20:44 55.7 °F 31.7 °F 30.15 in NNW 1.7 mph 4.6 mph 40 % 0.00 in 0.0 W/m2 SCT
20:49 55.6 °F 31.6 °F 30.16 in NNW 0.5 mph 3.5 mph 40 % 0.00 in 0.0 W/m2 SCT
20:54 55.4 °F 31.5 °F 30.16 in NNW 0.3 mph 3.5 mph 40 % 0.00 in 0.0 W/m2 SCT
20:59 55.1 °F 31.2 °F 30.16 in Calm   1.2 mph 40 % 0.00 in 0.0 W/m2 SCT
21:04 55.0 °F 31.1 °F 30.17 in NW 0.1 mph 3.5 mph 40 % 0.00 in 0.0 W/m2 SCT
21:09 54.8 °F 30.9 °F 30.17 in NNW 0.2 mph 1.2 mph 40 % 0.00 in 0.0 W/m2 SCT
21:14 54.5 °F 31.3 °F 30.17 in Calm     41 % 0.00 in 0.0 W/m2 SCT
21:19 54.3 °F 31.1 °F 30.17 in Calm     41 % 0.00 in 0.0 W/m2 SCT
21:24 54.0 °F 31.4 °F 30.18 in Calm     42 % 0.00 in 0.0 W/m2 SCT
21:29 53.9 °F 30.7 °F 30.18 in Calm     41 % 0.00 in 0.0 W/m2 SCT
21:34 53.5 °F 31.0 °F 30.18 in Calm     42 % 0.00 in 0.0 W/m2 SCT
21:39 53.3 °F 31.4 °F 30.19 in Calm     43 % 0.00 in 0.0 W/m2 SCT
21:44 53.3 °F 30.8 °F 30.19 in Calm     42 % 0.00 in 0.0 W/m2 SCT
21:49 52.8 °F 31.5 °F 30.19 in Calm     44 % 0.00 in 0.0 W/m2 SCT
21:54 52.4 °F 32.2 °F 30.19 in Calm     46 % 0.00 in 0.0 W/m2 SCT
21:59 52.6 °F 31.3 °F 30.20 in Calm     44 % 0.00 in 0.0 W/m2 SCT
22:04 52.6 °F 31.3 °F 30.20 in Calm     44 % 0.00 in 0.0 W/m2 SCT
22:09 52.0 °F 31.3 °F 30.20 in Calm     45 % 0.00 in 0.0 W/m2 SCT
22:14 51.4 °F 31.8 °F 30.20 in Calm     47 % 0.00 in 0.0 W/m2 SCT
22:19 51.5 °F 31.9 °F 30.20 in Calm     47 % 0.00 in 0.0 W/m2 SCT
22:24 52.0 °F 31.8 °F 30.20 in Calm     46 % 0.00 in 0.0 W/m2 SCT
22:29 52.1 °F 31.4 °F 30.20 in Calm   1.2 mph 45 % 0.00 in 0.0 W/m2 SCT
22:34 51.8 °F 31.1 °F 30.20 in Calm     45 % 0.00 in 0.0 W/m2 SCT
22:39 51.3 °F 31.7 °F 30.20 in Calm     47 % 0.00 in 0.0 W/m2 SCT
22:44 51.1 °F 32.1 °F 30.20 in Calm     48 % 0.00 in 0.0 W/m2 SCT
22:49 50.4 °F 31.9 °F 30.20 in Calm     49 % 0.00 in 0.0 W/m2 SCT
22:54 49.9 °F 32.5 °F 30.20 in Calm     51 % 0.00 in 0.0 W/m2 SCT
22:59 49.9 °F 33.0 °F 30.20 in Calm     52 % 0.00 in 0.0 W/m2 SCT
23:04 49.8 °F 32.9 °F 30.20 in Calm     52 % 0.00 in 0.0 W/m2 SCT
23:09 49.8 °F 33.3 °F 30.20 in Calm     53 % 0.00 in 0.0 W/m2 SCT
23:14 49.4 °F 33.0 °F 30.21 in Calm     53 % 0.00 in 0.0 W/m2 SCT
23:19 49.5 °F 33.1 °F 30.20 in Calm     53 % 0.00 in 0.0 W/m2 SCT
23:24 48.7 °F 32.8 °F 30.21 in Calm     54 % 0.00 in 0.0 W/m2 SCT
23:29 48.3 °F 33.3 °F 30.21 in Calm     56 % 0.00 in 0.0 W/m2 SCT
23:35 48.4 °F 33.4 °F 30.21 in Calm     56 % 0.00 in 0.0 W/m2 SCT
23:40 48.2 °F 33.7 °F 30.21 in Calm     57 % 0.00 in 0.0 W/m2 SCT
23:45 47.6 °F 34.8 °F 30.21 in Calm     61 % 0.00 in 0.0 W/m2 SCT
23:50 47.4 °F 34.6 °F 30.22 in Calm     61 % 0.00 in 0.0 W/m2 SCT
23:55 47.2 °F 34.4 °F 30.22 in Calm     61 % 0.00 in 0.0 W/m2 SCT
Air Products Campus Weather
Compliments of Weather Underground - 3.5 mb